Time;durP1;ratioP1;P1;durP2;ratioP2;P2;SDS_P1;SDS_P2;PMS_P1;PMS_P2;Temp;Humidity;BMP_temperature;BMP_pressure;BME280_temperature;BME280_humidity;BME280_pressure;Samples;Min_cycle;Max_cycle;Signal;HPM_P1;HPM_P2
2021/11/09 00:00:00;;;;;;;14.90;10.27;;;5.70;84.50;;;4.28;90.29;98884.22;5068159;28;20962;-71
2021/11/09 00:02:28;;;;;;;21.03;10.70;;;5.70;85.60;;;4.24;88.87;98881.84;5065605;28;20564;-72
2021/11/09 00:04:57;;;;;;;15.20;10.70;;;5.60;85.10;;;4.14;89.36;98875.72;5066711;28;21001;-73
2021/11/09 00:07:30;;;;;;;14.33;10.13;;;5.60;85.00;;;4.00;90.07;98878.94;5055560;28;20468;-72
2021/11/09 00:09:57;;;;;;;15.70;9.80;;;5.50;85.70;;;4.25;88.67;98878.19;5075176;28;20570;-73
2021/11/09 00:12:28;;;;;;;16.73;10.40;;;5.60;85.40;;;4.15;89.37;98885.44;5065242;28;20539;-72
2021/11/09 00:14:56;;;;;;;15.53;10.53;;;5.60;85.00;;;4.24;89.49;98881.84;5065102;28;20456;-72
2021/11/09 00:17:25;;;;;;;22.00;11.23;;;5.60;84.80;;;4.17;89.15;98885.28;5053678;28;20553;-72
2021/11/09 00:19:53;;;;;;;16.57;10.57;;;5.60;84.60;;;4.03;89.90;98865.28;5051529;28;20655;-73
2021/11/09 00:22:22;;;;;;;18.97;10.50;;;5.60;85.30;;;4.16;89.05;98879.09;5068489;28;20465;-74
2021/11/09 00:24:50;;;;;;;20.73;10.87;;;5.50;85.50;;;4.18;89.58;98882.47;5051303;28;20460;-74
2021/11/09 00:27:18;;;;;;;15.50;9.77;;;5.60;85.80;;;4.19;89.08;98888.66;5069996;28;20551;-73
2021/11/09 00:29:45;;;;;;;11.83;9.40;;;5.60;85.10;;;4.28;89.02;98882.38;5056886;28;20554;-74
2021/11/09 00:32:12;;;;;;;13.90;10.80;;;5.60;85.30;;;4.27;88.88;98882.53;5066555;28;20546;-73
2021/11/09 00:34:41;;;;;;;15.70;10.87;;;5.60;85.20;;;4.19;89.39;98878.81;5062158;28;20857;-74
2021/11/09 00:37:08;;;;;;;16.13;9.83;;;5.60;84.70;;;4.32;89.43;98882.91;5065790;28;20465;-73
2021/11/09 00:39:35;;;;;;;13.30;9.87;;;5.60;85.50;;;4.19;90.00;98876.13;5051650;28;20531;-73
2021/11/09 00:42:03;;;;;;;18.53;11.53;;;5.60;85.30;;;4.28;88.55;98886.88;5048732;28;20469;-73
2021/11/09 00:44:30;;;;;;;13.97;10.23;;;5.70;84.40;;;4.20;89.78;98880.47;5074037;28;20489;-73
2021/11/09 00:46:58;;;;;;;22.17;10.43;;;5.60;85.50;;;4.40;88.73;98880.31;5072138;28;20513;-73
2021/11/09 00:49:25;;;;;;;16.23;10.07;;;5.60;85.80;;;4.31;88.97;98894.59;5069623;28;20732;-73
2021/11/09 00:51:54;;;;;;;12.20;9.00;;;5.60;85.40;;;4.44;88.47;98889.69;5054985;28;20548;-74
2021/11/09 00:54:21;;;;;;;14.30;9.57;;;5.70;84.70;;;4.39;88.87;98895.50;5073188;28;20471;-73
2021/11/09 00:56:49;;;;;;;12.67;9.80;;;5.80;84.60;;;4.44;89.62;98891.53;5069099;28;20543;-74
2021/11/09 00:59:16;;;;;;;15.17;10.10;;;5.80;85.30;;;4.35;89.33;98899.50;5070705;28;20452;-73
2021/11/09 01:01:45;;;;;;;15.67;9.77;;;5.70;85.20;;;4.32;89.60;98894.44;5072659;28;20898;-73
2021/11/09 01:04:12;;;;;;;13.43;9.67;;;5.70;85.30;;;4.22;90.07;98899.88;5055619;28;20487;-73
2021/11/09 01:06:39;;;;;;;12.03;8.97;;;5.70;85.20;;;4.12;90.91;98899.09;5052342;28;20468;-73
2021/11/09 01:09:07;;;;;;;15.03;10.10;;;5.60;86.40;;;4.39;89.98;98895.50;5055347;28;20544;-73
2021/11/09 01:11:35;;;;;;;15.40;9.63;;;5.60;86.40;;;4.44;89.67;98902.25;5046443;28;20468;-73
2021/11/09 01:14:04;;;;;;;18.07;11.27;;;5.80;85.40;;;4.27;90.33;98895.91;5074579;28;20488;-73
2021/11/09 01:16:31;;;;;;;16.97;10.97;;;5.70;86.20;;;4.33;90.38;98897.97;5069705;28;20465;-73
2021/11/09 01:19:02;;;;;;;17.20;10.97;;;5.70;86.00;;;4.28;89.59;98897.59;5053577;28;20552;-73
2021/11/09 01:21:29;;;;;;;14.67;11.00;;;5.70;85.90;;;4.44;89.48;98903.06;5062865;28;20484;-73
2021/11/09 01:23:56;;;;;;;18.50;10.77;;;5.80;85.20;;;4.31;90.38;98902.63;5073054;28;20484;-73
2021/11/09 01:26:28;;;;;;;16.23;10.70;;;5.70;86.00;;;4.24;90.27;98907.75;5060608;28;20522;-73
2021/11/09 01:28:58;;;;;;;15.63;9.77;;;5.60;86.60;;;4.16;90.87;98900.47;5071545;28;20459;-73
2021/11/09 01:31:26;;;;;;;14.90;10.70;;;5.60;87.40;;;4.13;90.63;98900.78;5053252;28;20457;-72
2021/11/09 01:33:54;;;;;;;13.57;9.80;;;5.60;87.50;;;4.12;90.69;98901.78;5054010;28;20455;-73
2021/11/09 01:36:23;;;;;;;23.00;10.53;;;5.50;88.10;;;4.31;90.94;98910.66;5069383;28;20441;-72
2021/11/09 01:38:50;;;;;;;19.97;11.70;;;5.60;88.40;;;4.42;89.32;98912.28;5050545;28;20449;-73
2021/11/09 01:41:17;;;;;;;19.93;10.97;;;5.80;86.40;;;4.21;91.16;98908.91;5071058;28;20565;-73
2021/11/09 01:43:47;;;;;;;22.43;10.50;;;5.70;86.80;;;4.38;90.68;98909.06;5060619;28;20496;-74
2021/11/09 01:46:16;;;;;;;13.90;10.53;;;5.70;86.50;;;4.36;89.07;98893.16;5072646;28;20529;-73
2021/11/09 01:48:44;;;;;;;16.90;10.83;;;5.80;86.00;;;4.33;89.82;98911.38;5073487;28;20955;-73
2021/11/09 01:51:15;;;;;;;17.80;10.40;;;5.80;86.10;;;4.24;90.26;98907.75;5071608;28;20542;-73
2021/11/09 01:53:44;;;;;;;16.03;11.40;;;5.70;86.10;;;4.18;90.66;98901.19;5074985;28;20481;-74
2021/11/09 01:56:15;;;;;;;20.43;10.70;;;5.60;86.80;;;4.15;91.03;98882.75;5051890;28;21014;-73
2021/11/09 01:58:43;;;;;;;14.63;9.83;;;5.60;86.60;;;4.25;90.33;98896.06;5050961;28;20448;-74
2021/11/09 02:01:16;;;;;;;16.43;9.80;;;5.60;87.30;;;4.11;90.90;98902.78;5067517;28;20477;-73
2021/11/09 02:03:46;;;;;;;17.60;10.27;;;5.50;87.40;;;4.14;91.16;98905.16;5068842;28;20472;-73
2021/11/09 02:06:14;;;;;;;18.27;10.87;;;5.50;88.70;;;4.12;91.07;98893.75;5069370;28;20458;-73
2021/11/09 02:08:41;;;;;;;17.50;10.23;;;5.50;87.80;;;4.14;90.69;98897.13;5057539;28;20539;-74
2021/11/09 02:11:09;;;;;;;14.00;10.00;;;5.60;87.70;;;4.29;89.95;98888.56;5068891;28;20518;-73
2021/11/09 02:13:36;;;;;;;12.90;10.30;;;5.60;87.60;;;4.24;90.13;98903.25;5065390;28;20538;-73
2021/11/09 02:16:03;;;;;;;19.67;10.37;;;5.60;87.60;;;4.13;90.41;98878.56;5067750;28;20528;-73
2021/11/09 02:18:32;;;;;;;14.97;9.60;;;5.60;87.40;;;4.19;91.04;98900.19;5080665;28;20544;-74
2021/11/09 02:21:04;;;;;;;14.33;9.43;;;5.60;87.60;;;4.22;90.67;98897.22;5067894;28;21556;-74
2021/11/09 02:23:33;;;;;;;12.57;8.60;;;5.60;86.40;;;4.11;91.42;98897.44;5045675;28;20446;-73
2021/11/09 02:26:01;;;;;;;17.73;10.87;;;5.50;87.70;;;4.16;90.86;98889.78;5065720;28;20461;-73
2021/11/09 02:28:30;;;;;;;17.43;9.40;;;5.50;88.30;;;4.31;90.56;98902.63;5048555;28;20471;-73
2021/11/09 02:30:57;;;;;;;16.10;10.10;;;5.60;87.10;;;4.14;90.45;98904.31;5045568;28;20483;-72
2021/11/09 02:33:25;;;;;;;18.77;9.50;;;5.70;86.30;;;4.07;91.41;98909.44;5064227;28;20468;-73
2021/11/09 02:35:52;;;;;;;19.17;8.63;;;5.60;87.40;;;4.04;91.55;98907.91;5052790;28;20485;-73
2021/11/09 02:38:21;;;;;;;13.30;9.83;;;5.50;88.50;;;4.15;90.94;98909.50;5066607;28;21140;-73
2021/11/09 02:40:48;;;;;;;18.23;9.60;;;5.50;88.10;;;4.12;90.92;98904.47;5045114;28;20464;-73
2021/11/09 02:43:18;;;;;;;17.33;10.30;;;5.60;87.20;;;4.09;90.94;98902.94;5071687;28;20539;-73
2021/11/09 02:45:57;;;;;;;16.83;10.30;;;5.50;87.50;;;3.95;92.54;98898.94;5069198;28;20522;-73
2021/11/09 02:48:27;;;;;;;13.90;9.20;;;5.40;88.60;;;4.03;92.49;98905.38;5052091;28;21341;-73
2021/11/09 02:51:00;;;;;;;16.27;10.50;;;5.40;89.40;;;3.81;93.26;98899.47;5064173;28;20465;-74
2021/11/09 02:53:34;;;;;;;17.10;11.00;;;5.30;89.60;;;4.01;92.82;98915.38;5067135;28;21397;-73
2021/11/09 02:56:07;;;;;;;14.10;9.83;;;5.30;90.30;;;3.94;92.13;98907.97;5066693;28;20467;-73
2021/11/09 02:58:44;;;;;;;13.80;10.20;;;5.30;90.20;;;3.94;93.06;98915.13;5052605;28;20464;-73
2021/11/09 03:01:16;;;;;;;16.90;10.30;;;5.30;90.30;;;3.92;92.21;98887.72;5068599;28;20483;-73
2021/11/09 03:03:51;;;;;;;14.50;10.20;;;5.40;90.20;;;3.93;91.98;98919.66;5064755;28;20472;-73
2021/11/09 03:06:26;;;;;;;15.60;10.00;;;5.40;89.20;;;3.84;93.06;98917.88;5047072;28;20468;-72
2021/11/09 03:08:58;;;;;;;14.40;9.37;;;5.30;90.10;;;3.75;93.68;98921.47;5070775;28;20479;-72
2021/11/09 03:11:26;;;;;;;12.40;9.40;;;5.20;90.70;;;3.88;92.71;98921.94;5066838;28;20457;-72
2021/11/09 03:13:54;;;;;;;14.60;9.83;;;5.20;91.00;;;3.81;93.28;98928.88;5051081;28;21108;-73
2021/11/09 03:16:21;;;;;;;14.70;10.00;;;5.20;90.90;;;3.90;93.26;98922.63;5064377;28;20449;-72
2021/11/09 03:18:51;;;;;;;17.83;10.60;;;5.30;91.00;;;4.01;92.52;98921.56;5066263;28;20464;-72
2021/11/09 03:40:36;;;;;;;13.23;9.00;;;5.30;90.40;;;3.79;92.65;98914.81;5048231;28;20458;-73
2021/11/09 03:45:50;;;;;;;11.60;8.97;;;5.20;90.90;;;3.64;93.87;98923.34;5051078;28;20940;-72
2021/11/09 03:48:18;;;;;;;12.20;9.30;;;5.20;91.00;;;3.54;93.65;98917.19;5071590;28;20465;-72
2021/11/09 03:50:46;;;;;;;13.03;8.87;;;5.10;91.20;;;3.62;94.08;98936.00;5068391;28;20984;-73
2021/11/09 03:53:19;;;;;;;13.90;9.57;;;5.10;91.50;;;3.43;95.47;98925.41;5071966;28;20564;-72
2021/11/09 03:56:12;;;;;;;15.47;9.30;;;5.00;91.80;;;3.56;95.10;98925.88;5069683;28;20453;-72
2021/11/09 03:58:42;;;;;;;12.40;9.40;;;5.00;92.30;;;3.62;94.30;98930.66;5068217;28;20504;-73
2021/11/09 04:01:11;;;;;;;12.30;9.10;;;5.00;91.20;;;3.56;94.57;98928.56;5073809;28;20963;-72
2021/11/09 04:03:54;;;;;;;20.30;9.67;;;4.90;91.90;;;3.46;94.90;98935.81;5060335;28;20487;-73
2021/11/09 04:06:31;;;;;;;12.73;8.37;;;4.80;92.50;;;3.36;94.54;98930.50;5054160;28;20737;-72
2021/11/09 04:09:03;;;;;;;13.10;9.10;;;4.80;92.60;;;3.29;94.64;98943.59;5064976;28;20501;-72
2021/11/09 04:11:37;;;;;;;16.00;8.80;;;4.80;92.00;;;3.24;95.55;98943.19;5067727;28;20496;-72
2021/11/09 04:14:13;;;;;;;15.80;9.10;;;4.60;93.70;;;3.18;95.23;98925.06;5075695;28;20887;-72
2021/11/09 04:16:46;;;;;;;18.77;10.27;;;4.60;92.90;;;3.05;95.96;98942.25;5072595;28;20951;-73
2021/11/09 04:19:26;;;;;;;16.17;9.30;;;4.50;93.10;;;3.13;95.97;98930.84;5053907;28;20484;-73
2021/11/09 04:22:19;;;;;;;17.00;10.07;;;4.50;93.80;;;3.08;96.42;98933.94;5066555;28;20572;-73
2021/11/09 04:25:16;;;;;;;17.10;9.47;;;4.50;94.50;;;2.92;96.60;98945.25;5072557;28;21208;-73
2021/11/09 04:27:53;;;;;;;15.37;10.20;;;4.40;93.60;;;2.68;97.87;98940.38;5060104;28;20490;-72
2021/11/09 04:30:45;;;;;;;15.80;10.00;;;4.20;93.90;;;2.64;97.69;98937.13;5072339;28;20960;-72
2021/11/09 04:53:04;;;;;;;20.10;10.03;;;3.70;99.90;;;2.26;99.48;98950.31;5056467;28;20469;-73
2021/11/09 05:09:25;;;;;;;17.53;11.17;;;3.60;99.90;;;2.15;100.00;98942.44;5054716;28;20445;-72
2021/11/09 05:11:52;;;;;;;12.60;9.83;;;3.60;99.90;;;2.14;100.00;98946.09;5046725;28;21273;-72
2021/11/09 05:14:19;;;;;;;14.97;10.27;;;3.60;99.90;;;2.05;100.00;98952.28;5071742;28;20548;-72
2021/11/09 05:16:48;;;;;;;15.97;9.83;;;3.50;99.90;;;1.94;100.00;98951.41;5062263;28;20548;-72
2021/11/09 05:19:15;;;;;;;11.70;9.50;;;3.50;99.90;;;1.88;100.00;98946.59;5070146;28;20485;-72
2021/11/09 05:21:42;;;;;;;13.50;9.33;;;3.40;99.90;;;1.83;100.00;98956.84;5071941;28;20469;-73
2021/11/09 05:24:11;;;;;;;13.70;9.60;;;3.30;99.90;;;1.95;100.00;98949.56;5073770;28;20964;-73
2021/11/09 05:26:41;;;;;;;19.47;10.90;;;3.30;99.90;;;1.78;100.00;98951.09;5051651;28;20456;-73
2021/11/09 05:29:09;;;;;;;14.00;9.73;;;3.30;99.90;;;1.88;100.00;98951.94;5051660;28;20452;-73
2021/11/09 05:31:36;;;;;;;16.13;9.80;;;3.30;99.90;;;1.92;100.00;98956.03;5052684;28;20473;-74
2021/11/09 05:34:05;;;;;;;11.80;10.07;;;3.40;99.90;;;1.79;100.00;98958.94;5071682;28;22001;-73
2021/11/09 05:36:35;;;;;;;14.53;10.00;;;3.30;99.90;;;1.81;100.00;98951.63;5054617;28;20522;-73
2021/11/09 05:39:09;;;;;;;20.67;12.33;;;3.30;99.90;;;1.84;100.00;98958.53;5054875;28;20449;-71
2021/11/09 05:41:38;;;;;;;18.73;10.70;;;3.30;99.90;;;1.62;100.00;98952.44;5057342;28;20839;-71
2021/11/09 05:44:10;;;;;;;19.33;11.10;;;3.20;99.90;;;1.55;100.00;98967.25;5053691;28;20454;-71
2021/11/09 05:46:39;;;;;;;16.30;11.37;;;3.10;99.90;;;1.72;100.00;98962.28;5072861;28;20464;-71
2021/11/09 05:49:08;;;;;;;17.03;10.97;;;3.10;99.90;;;1.76;100.00;98967.19;5055333;28;20996;-74
2021/11/09 05:51:36;;;;;;;19.57;10.90;;;3.20;99.90;;;1.77;100.00;98976.06;5074166;28;20545;-72
2021/11/09 05:54:03;;;;;;;16.87;11.27;;;3.20;99.90;;;1.83;100.00;98975.50;5071417;28;20476;-72
2021/11/09 05:56:31;;;;;;;19.60;12.10;;;3.30;99.90;;;1.73;100.00;98975.47;5075349;28;20519;-71
2021/11/09 05:58:59;;;;;;;13.23;9.77;;;3.20;99.90;;;1.76;100.00;98987.69;5071264;28;20899;-71
2021/11/09 06:01:26;;;;;;;14.17;9.77;;;3.20;99.90;;;1.77;100.00;98995.53;5049636;28;20540;-71
2021/11/09 06:03:53;;;;;;;17.80;11.00;;;3.20;99.90;;;1.72;100.00;98979.13;5047872;28;20549;-72
2021/11/09 06:06:22;;;;;;;17.27;11.13;;;3.20;99.90;;;1.60;100.00;98999.69;5068506;28;20492;-72
2021/11/09 06:08:50;;;;;;;15.93;11.17;;;3.10;99.90;;;1.59;100.00;98999.81;5064272;28;20457;-73
2021/11/09 06:11:17;;;;;;;16.57;9.70;;;3.00;99.90;;;1.46;100.00;99000.06;5053023;28;20460;-71
2021/11/09 06:13:44;;;;;;;16.27;9.70;;;3.00;99.90;;;1.55;100.00;99010.75;5067693;28;20457;-70
2021/11/09 06:16:12;;;;;;;20.87;11.43;;;2.90;99.90;;;1.56;100.00;99011.56;5049839;28;20446;-70
2021/11/09 06:18:40;;;;;;;18.13;11.37;;;3.00;99.90;;;1.54;100.00;99017.06;5068807;28;20480;-70
2021/11/09 06:21:07;;;;;;;17.30;11.13;;;3.00;99.90;;;1.63;100.00;99026.06;5069402;28;20492;-70
2021/11/09 06:23:35;;;;;;;19.43;11.77;;;3.10;99.90;;;1.72;100.00;99026.22;5054789;28;20484;-71
2021/11/09 06:26:03;;;;;;;16.20;10.60;;;3.10;99.90;;;1.70;100.00;99024.53;5047784;28;20484;-71
2021/11/09 06:28:30;;;;;;;14.00;10.23;;;3.20;99.90;;;1.92;100.00;99038.66;5064621;28;20466;-69
2021/11/09 06:30:57;;;;;;;16.17;11.23;;;3.20;99.90;;;2.07;100.00;99030.28;5063882;28;20850;-70
2021/11/09 06:33:25;;;;;;;22.03;13.63;;;3.40;99.90;;;2.46;100.00;99033.03;5064287;28;21247;-68
2021/11/09 06:35:52;;;;;;;15.30;11.57;;;3.70;99.90;;;2.41;100.00;99038.78;5063437;28;20468;-69
2021/11/09 06:38:21;;;;;;;16.77;10.73;;;3.80;99.90;;;2.25;100.00;99044.66;5052666;28;20488;-69
2021/11/09 06:40:49;;;;;;;11.20;9.53;;;3.70;99.90;;;2.28;100.00;99040.03;5069612;28;21179;-69
2021/11/09 06:43:16;;;;;;;13.70;9.47;;;3.70;99.90;;;2.34;100.00;99042.97;5064067;28;20584;-69
2021/11/09 06:45:45;;;;;;;16.70;10.07;;;3.70;99.90;;;2.23;100.00;99049.28;5066914;28;21002;-68
2021/11/09 06:48:13;;;;;;;13.83;9.30;;;3.70;99.90;;;2.31;100.00;99047.75;5051040;28;20463;-68
2021/11/09 06:50:40;;;;;;;11.83;9.40;;;3.70;99.90;;;2.26;100.00;99042.81;5063785;28;20460;-69
2021/11/09 06:53:07;;;;;;;13.73;10.03;;;3.80;99.90;;;2.37;100.00;99047.22;5070068;28;20527;-68
2021/11/09 06:55:37;;;;;;;22.97;9.63;;;3.80;99.90;;;2.39;100.00;99047.91;5069978;28;20531;-70
2021/11/09 06:58:05;;;;;;;18.20;9.10;;;3.80;99.90;;;2.40;100.00;99057.59;5068158;28;20560;-68
2021/11/09 07:00:33;;;;;;;12.57;9.70;;;3.80;99.90;;;2.50;100.00;99058.47;5041947;28;20537;-69
2021/11/09 07:03:00;;;;;;;16.27;9.60;;;3.90;99.40;;;2.47;99.98;99060.56;5066456;28;20510;-69
2021/11/09 07:05:28;;;;;;;20.30;9.20;;;3.90;98.80;;;2.47;99.95;99058.72;5052424;28;20481;-68
2021/11/09 07:07:55;;;;;;;16.43;8.97;;;3.90;99.50;;;2.51;99.88;99065.50;5048181;28;20458;-69
2021/11/09 07:10:23;;;;;;;15.03;10.23;;;3.90;98.20;;;2.50;99.89;99074.47;5062965;28;20545;-69
2021/11/09 07:12:50;;;;;;;14.33;9.23;;;3.90;98.50;;;2.53;99.51;99079.53;5050952;28;20514;-69
2021/11/09 07:15:20;;;;;;;18.70;9.93;;;3.90;98.20;;;2.65;99.25;99082.06;5053365;28;20449;-67
2021/11/09 07:17:48;;;;;;;13.50;9.07;;;4.00;97.80;;;2.60;98.81;99081.63;5065393;28;20470;-68
2021/11/09 07:20:18;;;;;;;15.03;9.17;;;4.00;96.90;;;2.55;99.12;99088.25;5075377;28;20516;-68
2021/11/09 07:22:47;;;;;;;11.67;8.60;;;4.00;96.80;;;2.62;99.69;99093.00;5050723;28;20497;-68
2021/11/09 07:25:16;;;;;;;13.50;8.80;;;4.00;98.00;;;2.74;99.57;99093.75;5065253;28;20514;-69
2021/11/09 07:27:43;;;;;;;14.87;8.80;;;4.10;98.10;;;2.73;99.42;99098.22;5073816;28;20475;-68
2021/11/09 07:30:13;;;;;;;16.50;9.47;;;4.20;98.20;;;2.88;99.53;99104.03;5068165;28;20540;-70
2021/11/09 07:32:44;;;;;;;15.00;8.67;;;4.20;98.40;;;2.99;98.46;99100.38;5059518;28;20461;-71
2021/11/09 07:35:12;;;;;;;17.20;10.90;;;4.30;97.10;;;3.01;98.04;99086.88;5066539;28;20457;-71
2021/11/09 07:37:39;;;;;;;21.43;10.47;;;4.40;96.80;;;3.08;97.80;99098.69;5044120;28;20485;-71
2021/11/09 07:40:11;;;;;;;13.93;8.60;;;4.50;95.70;;;3.08;97.76;99098.69;5062095;28;20465;-71
2021/11/09 07:42:45;;;;;;;13.80;8.50;;;4.50;96.30;;;3.26;97.24;99102.31;5057984;28;20484;-69
2021/11/09 07:45:12;;;;;;;13.83;8.63;;;4.60;95.60;;;3.28;96.33;99107.53;5064458;28;20467;-69
2021/11/09 07:47:40;;;;;;;15.50;8.13;;;4.70;93.70;;;3.37;96.49;99104.00;5066387;28;20557;-69
2021/11/09 07:50:08;;;;;;;12.57;9.23;;;4.70;93.80;;;3.34;96.00;99101.63;5048829;28;20560;-70
2021/11/09 07:52:36;;;;;;;11.73;8.33;;;4.70;93.60;;;3.45;95.21;99091.78;5039656;28;20469;-71
2021/11/09 07:55:05;;;;;;;11.27;8.47;;;4.90;92.90;;;3.60;95.20;99101.03;5050886;28;20467;-71
2021/11/09 07:57:42;;;;;;;13.20;8.70;;;4.90;92.50;;;3.64;94.70;99099.72;5065781;28;20909;-70
2021/11/09 08:00:21;;;;;;;12.17;7.97;;;5.00;92.30;;;3.63;94.36;99098.06;5062218;28;20515;-69
2021/11/09 08:03:01;;;;;;;12.47;8.20;;;5.00;92.10;;;3.62;95.69;99096.38;5045413;28;20552;-68
2021/11/09 08:05:33;;;;;;;11.40;7.63;;;5.00;93.00;;;3.69;94.55;99097.47;5065149;28;20455;-70
2021/11/09 08:08:05;;;;;;;7.97;6.70;;;5.00;92.20;;;3.49;93.10;99048.59;5072954;28;20960;-70
2021/11/09 08:10:32;;;;;;;11.00;8.10;;;5.10;91.40;;;3.97;92.19;99102.88;5048555;28;20544;-70
2021/11/09 08:12:59;;;;;;;12.30;8.40;;;5.30;90.60;;;4.10;92.00;99109.72;5060764;28;20461;-71
2021/11/09 08:15:26;;;;;;;10.93;7.23;;;5.40;89.70;;;4.13;90.90;99104.06;5060408;28;20471;-70
2021/11/09 08:17:55;;;;;;;13.27;8.17;;;5.50;88.90;;;4.11;91.30;99095.34;5064044;28;20555;-71
2021/11/09 08:20:22;;;;;;;10.13;6.90;;;5.50;88.20;;;4.21;90.56;99112.22;5044108;28;20537;-71
2021/11/09 08:22:49;;;;;;;10.40;6.83;;;5.50;88.70;;;4.27;90.66;99108.13;5060364;28;20522;-71
2021/11/09 08:25:16;;;;;;;12.67;7.23;;;5.60;87.80;;;4.34;90.54;99106.53;5043552;28;21025;-71
2021/11/09 08:27:44;;;;;;;12.30;7.60;;;5.70;87.30;;;4.44;88.91;99095.75;5058256;28;20485;-70
2021/11/09 08:30:12;;;;;;;9.93;7.83;;;5.80;85.10;;;4.75;87.84;99100.78;5058918;28;20491;-69
2021/11/09 08:32:41;;;;;;;11.57;7.70;;;6.00;83.70;;;4.86;85.83;99101.56;5059221;28;20536;-70
2021/11/09 08:35:12;;;;;;;12.67;7.27;;;6.20;81.60;;;4.92;85.30;99100.94;5047845;28;20461;-70
2021/11/09 08:37:40;;;;;;;7.93;6.00;;;6.30;81.20;;;4.93;85.15;99100.81;5064195;28;20477;-70
2021/11/09 08:40:14;;;;;;;9.00;6.17;;;6.30;80.60;;;4.97;85.84;99101.34;5041937;28;20470;-69
2021/11/09 08:42:46;;;;;;;11.60;6.43;;;6.30;81.10;;;5.08;84.23;99103.81;5062612;28;20469;-71
2021/11/09 08:45:20;;;;;;;11.73;6.03;;;6.40;80.20;;;5.17;84.24;99104.72;5067025;28;20507;-69
2021/11/09 08:47:50;;;;;;;10.20;6.00;;;6.50;80.40;;;5.36;83.34;99106.38;5050659;28;20467;-70
2021/11/09 08:50:22;;;;;;;9.70;5.63;;;6.60;79.30;;;5.41;82.80;99099.72;5041628;28;21050;-70
2021/11/09 08:52:50;;;;;;;10.30;6.20;;;6.70;78.90;;;5.58;81.27;99109.56;5065076;28;20991;-71
2021/11/09 08:55:28;;;;;;;9.20;5.47;;;6.90;77.50;;;5.70;80.71;99106.63;5067611;28;20547;-70
2021/11/09 08:58:20;;;;;;;9.30;4.90;;;7.00;76.70;;;5.82;77.94;99110.72;5063525;28;20522;-70
2021/11/09 09:01:13;;;;;;;7.43;5.10;;;7.10;74.40;;;5.97;78.25;99108.31;5063993;28;20453;-71
2021/11/09 09:06:26;;;;;;;8.90;4.60;;;7.30;72.50;;;6.06;76.68;99112.72;5062427;28;20468;-70
2021/11/09 09:08:53;;;;;;;8.53;4.03;;;7.40;71.50;;;6.02;74.60;99116.75;5041802;28;20864;-71
2021/11/09 09:11:20;;;;;;;6.57;4.10;;;7.40;69.30;;;6.13;73.58;99120.97;5057177;28;20576;-70
2021/11/09 09:13:48;;;;;;;9.03;5.03;;;7.40;68.60;;;6.21;75.12;99121.03;5065403;28;20460;-70
2021/11/09 09:16:15;;;;;;;8.43;4.13;;;7.50;69.60;;;6.30;74.37;99118.41;5065958;28;20570;-71
2021/11/09 09:18:43;;;;;;;9.13;4.47;;;7.60;68.90;;;6.41;73.53;99123.47;5063668;28;20457;-70
2021/11/09 09:21:13;;;;;;;5.50;3.77;;;7.70;68.40;;;6.67;72.49;99130.63;5061825;28;20460;-70
2021/11/09 09:23:45;;;;;;;6.70;4.27;;;7.90;67.90;;;6.73;72.10;99121.06;5070464;28;21634;-71
2021/11/09 09:26:24;;;;;;;6.57;4.10;;;7.90;67.40;;;6.75;72.28;99122.59;5048422;28;20916;-71
2021/11/09 09:31:56;;;;;;;5.80;3.40;;;8.10;66.80;;;6.87;70.20;99122.28;5055896;28;20456;-70
2021/11/09 09:54:03;;;;;;;8.60;3.10;;;8.50;61.70;;;7.21;66.04;99114.09;5059165;28;20481;-70
2021/11/09 09:56:40;;;;;;;3.40;3.10;;;8.50;61.30;;;7.21;66.10;99113.28;5071316;28;20533;-69
2021/11/09 09:59:11;;;;;;;5.97;3.25;;;8.50;60.80;;;7.21;67.16;99105.22;5063947;28;20458;-70
2021/11/09 10:01:39;;;;;;;6.13;3.30;;;8.60;61.20;;;7.26;66.22;99110.91;5069665;28;20225;-70
2021/11/09 10:04:30;;;;;;;8.10;3.33;;;8.50;60.90;;;7.34;65.77;99116.28;5064040;28;20564;-69
2021/11/09 10:06:58;;;;;;;4.30;3.10;;;8.60;60.20;;;7.36;65.32;99119.66;5065641;28;20460;-71
2021/11/09 10:09:35;;;;;;;4.40;3.43;;;8.70;60.00;;;7.20;66.52;99114.25;5063363;28;20458;-70
2021/11/09 10:12:25;;;;;;;5.80;3.30;;;8.60;60.40;;;7.35;66.48;99112.63;5071197;28;20472;-71
2021/11/09 10:14:57;;;;;;;6.40;2.83;;;8.60;60.70;;;7.37;66.87;99121.34;5048175;28;20578;-70
2021/11/09 10:17:28;;;;;;;5.63;3.10;;;8.60;60.70;;;7.35;66.15;99122.50;5066224;28;20458;-70
2021/11/09 10:19:56;;;;;;;5.38;3.33;;;8.60;60.40;;;7.21;65.48;99121.34;5060555;28;20460;-70
2021/11/09 10:22:28;;;;;;;4.17;3.10;;;8.60;59.90;;;7.28;65.71;99121.47;5043774;28;21036;-69
2021/11/09 10:25:00;;;;;;;2.70;2.40;;;8.50;59.80;;;7.13;65.90;99113.25;5048531;28;21039;-71
2021/11/09 10:27:32;;;;;;;2.50;2.30;;;8.50;59.70;;;7.16;65.38;99108.41;5063439;28;20551;-70
2021/11/09 10:30:00;;;;;;;5.20;2.43;;;8.40;59.40;;;7.15;65.10;99113.94;5062692;28;20540;-70
2021/11/09 10:32:30;;;;;;;4.07;2.80;;;8.50;59.20;;;7.17;64.67;99103.84;5041989;28;21056;-70
2021/11/09 10:35:00;;;;;;;5.53;3.70;;;8.50;59.20;;;7.07;64.87;99094.13;5046926;28;21024;-74
2021/11/09 10:37:30;;;;;;;4.37;2.60;;;8.40;59.20;;;7.08;65.74;99101.16;5062340;28;20544;-72
2021/11/09 10:40:00;;;;;;;3.00;2.57;;;8.40;59.40;;;7.01;65.12;99100.13;5049977;28;20496;-69
2021/11/09 10:42:29;;;;;;;7.13;2.70;;;8.40;59.00;;;7.06;65.68;99100.50;5065263;28;20493;-70
2021/11/09 10:44:58;;;;;;;5.70;3.20;;;8.30;59.40;;;7.19;65.39;99097.31;5063718;28;20482;-70
2021/11/09 10:47:30;;;;;;;5.23;3.00;;;8.50;59.30;;;7.26;65.17;99097.47;5065178;28;20457;-70
2021/11/09 10:50:00;;;;;;;5.73;3.07;;;8.50;59.20;;;7.30;65.78;99098.81;5066106;28;20935;-70
2021/11/09 10:52:36;;;;;;;6.53;4.00;;;8.60;59.70;;;7.30;65.83;99098.00;5048448;28;20558;-70
2021/11/09 10:55:10;;;;;;;7.17;3.90;;;8.60;59.50;;;7.26;66.19;99086.72;5051951;28;20588;-69
2021/11/09 10:57:57;;;;;;;4.80;3.70;;;8.60;59.60;;;7.41;65.55;99091.44;5045436;28;20518;-71
2021/11/09 11:00:46;;;;;;;2.93;2.70;;;8.70;59.50;;;7.47;63.96;99085.38;5062999;28;20497;-71
2021/11/09 11:03:22;;;;;;;5.87;2.53;;;8.80;58.70;;;7.57;61.34;99094.09;5067726;28;21025;-72
2021/11/09 11:05:49;;;;;;;3.97;2.57;;;8.80;56.70;;;7.74;59.95;99083.31;5069060;28;20480;-72
2021/11/09 11:08:17;;;;;;;6.80;2.50;;;9.00;55.50;;;7.84;59.94;99083.13;5068839;28;20554;-72
2021/11/09 11:10:44;;;;;;;2.93;2.00;;;9.10;55.30;;;7.86;59.08;99079.25;5065821;28;20449;-72
2021/11/09 11:13:23;;;;;;;3.13;1.90;;;9.10;54.80;;;7.77;58.75;99073.06;5067316;28;20519;-72
2021/11/09 11:16:11;;;;;;;3.37;2.03;;;9.10;54.50;;;7.98;58.21;99076.22;5064630;28;20466;-71
2021/11/09 11:18:41;;;;;;;5.90;2.67;;;9.20;54.30;;;8.12;58.52;99069.25;5060351;28;20542;-71
2021/11/09 11:21:10;;;;;;;3.23;1.83;;;9.30;54.40;;;8.28;57.15;99065.69;5063690;28;20457;-70
2021/11/09 11:23:40;;;;;;;2.27;2.07;;;9.50;54.10;;;8.31;57.83;99059.94;5069396;28;20563;-72
2021/11/09 11:26:08;;;;;;;5.10;2.50;;;9.50;54.20;;;8.41;58.25;99057.03;5046684;28;20449;-71
2021/11/09 11:28:40;;;;;;;5.03;2.50;;;9.60;54.10;;;8.40;57.70;99055.34;5066253;28;20555;-70
2021/11/09 11:31:10;;;;;;;3.40;2.63;;;9.70;54.30;;;8.31;58.06;99051.88;5064563;28;20493;-71
2021/11/09 11:33:38;;;;;;;3.50;2.80;;;9.60;54.10;;;8.22;57.37;99030.34;5063568;28;20485;-71
2021/11/09 11:36:06;;;;;;;3.27;2.43;;;9.60;53.70;;;8.31;57.77;99041.09;5044373;28;20534;-72
2021/11/09 11:38:35;;;;;;;5.10;2.77;;;9.60;54.10;;;8.39;57.95;99041.03;5072091;28;20469;-70
2021/11/09 11:41:04;;;;;;;4.10;2.33;;;9.60;53.90;;;8.05;58.07;98999.13;5065801;28;20983;-71
2021/11/09 11:43:56;;;;;;;3.00;2.30;;;9.60;53.80;;;8.40;57.87;99025.72;5064544;28;20564;-72
2021/11/09 11:46:50;;;;;;;8.87;2.57;;;9.60;53.90;;;8.44;57.03;99014.44;5067639;28;20545;-72
2021/11/09 11:49:46;;;;;;;3.60;2.40;;;9.70;53.40;;;8.52;57.38;99015.41;5050311;28;20536;-72
2021/11/09 11:52:27;;;;;;;3.97;2.10;;;9.70;53.60;;;8.57;56.78;99011.19;5060299;28;20481;-73
2021/11/09 11:55:02;;;;;;;2.30;2.10;;;9.80;53.50;;;8.67;56.60;99019.03;5049474;28;20491;-71
2021/11/09 11:57:50;;;;;;;4.53;2.47;;;9.90;53.40;;;8.60;56.50;98996.53;5064848;28;20547;-71
2021/11/09 12:00:55;;;;;;;4.70;1.80;;;9.90;53.20;;;8.74;56.93;99000.28;5061837;28;20556;-72